Time;durP1;ratioP1;P1;durP2;ratioP2;P2;SDS_P1;SDS_P2;PMS_P1;PMS_P2;Temp;Humidity;BMP_temperature;BMP_pressure;BME280_temperature;BME280_humidity;BME280_pressure;Samples;Min_cycle;Max_cycle;Signal;HPM_P1;HPM_P2
2022/06/26 00:02:06;;;;;;;;;;;21.40;90.60;;;;;;5053264;28;19947;-80
2022/06/26 00:04:33;;;;;;;;;;;21.40;90.60;;;;;;5036960;28;19924;-80
2022/06/26 00:07:00;;;;;;;;;;;21.40;90.60;;;;;;5054367;28;19933;-79
2022/06/26 00:09:28;;;;;;;;;;;21.40;90.60;;;;;;5052974;28;19947;-80
2022/06/26 00:11:54;;;;;;;;;;;21.30;90.60;;;;;;5046793;28;19978;-80
2022/06/26 00:14:21;;;;;;;;;;;21.30;90.60;;;;;;5052027;28;20046;-80
2022/06/26 00:16:48;;;;;;;;;;;21.30;90.60;;;;;;5058744;28;20473;-80
2022/06/26 00:19:16;;;;;;;;;;;21.30;90.70;;;;;;5057349;28;19932;-80
2022/06/26 00:21:43;;;;;;;;;;;21.20;90.70;;;;;;5052939;28;19928;-80
2022/06/26 00:24:11;;;;;;;;;;;21.20;90.70;;;;;;5049820;28;19933;-80
2022/06/26 00:26:38;;;;;;;;;;;21.20;90.70;;;;;;5033422;28;19939;-80
2022/06/26 00:29:04;;;;;;;;;;;21.20;90.70;;;;;;5032875;28;19932;-80
2022/06/26 00:31:31;;;;;;;;;;;21.20;90.70;;;;;;5035475;28;19947;-80
2022/06/26 00:33:58;;;;;;;;;;;21.10;90.70;;;;;;5031236;28;19933;-80
2022/06/26 00:36:26;;;;;;;;;;;21.10;90.70;;;;;;5055409;28;20077;-80
2022/06/26 00:38:53;;;;;;;;;;;21.00;90.70;;;;;;5050343;28;19947;-80
2022/06/26 00:41:20;;;;;;;;;;;21.00;90.70;;;;;;5059049;28;19924;-80
2022/06/26 00:43:47;;;;;;;;;;;21.00;90.70;;;;;;5048122;28;19976;-80
2022/06/26 00:46:14;;;;;;;;;;;21.00;90.70;;;;;;5059222;28;19951;-80
2022/06/26 00:48:41;;;;;;;;;;;21.00;90.70;;;;;;5050535;28;19932;-81
2022/06/26 00:51:09;;;;;;;;;;;20.90;90.70;;;;;;5047652;28;19929;-80
2022/06/26 00:53:38;;;;;;;;;;;20.90;90.70;;;;;;5049099;28;20028;-79
2022/06/26 00:56:05;;;;;;;;;;;20.90;90.70;;;;;;5058187;28;19924;-80
2022/06/26 00:58:32;;;;;;;;;;;20.90;90.70;;;;;;5048883;28;20306;-79
2022/06/26 01:01:01;;;;;;;;;;;20.80;90.70;;;;;;5046367;28;20201;-79
2022/06/26 01:03:27;;;;;;;;;;;20.80;90.70;;;;;;5059207;28;19924;-80
2022/06/26 01:05:55;;;;;;;;;;;20.80;90.70;;;;;;5037969;28;19971;-80
2022/06/26 01:08:22;;;;;;;;;;;20.80;90.80;;;;;;5044519;28;19931;-79
2022/06/26 01:10:50;;;;;;;;;;;20.80;90.80;;;;;;5047827;28;19924;-79
2022/06/26 01:13:18;;;;;;;;;;;20.80;90.80;;;;;;5036304;28;20478;-80
2022/06/26 01:15:45;;;;;;;;;;;20.70;90.70;;;;;;5034437;28;19932;-80
2022/06/26 01:18:12;;;;;;;;;;;20.70;90.80;;;;;;5028040;28;19932;-80
2022/06/26 01:20:40;;;;;;;;;;;20.70;90.80;;;;;;5033508;28;20398;-80
2022/06/26 01:23:09;;;;;;;;;;;20.70;90.80;;;;;;5029621;28;19936;-80
2022/06/26 01:25:44;;;;;;;;;;;20.60;90.90;;;;;;5034084;28;19943;-80
2022/06/26 01:28:12;;;;;;;;;;;20.60;90.90;;;;;;5045559;28;19925;-79
2022/06/26 01:30:39;;;;;;;;;;;20.60;90.90;;;;;;5035361;28;20406;-80
2022/06/26 01:33:10;;;;;;;;;;;20.60;90.90;;;;;;5049403;28;19931;-79
2022/06/26 01:35:37;;;;;;;;;;;20.60;90.90;;;;;;5048373;28;19924;-80
2022/06/26 01:38:14;;;;;;;;;;;20.60;91.00;;;;;;5043600;28;19947;-80
2022/06/26 01:40:42;;;;;;;;;;;20.50;90.90;;;;;;5044195;28;19932;-80
2022/06/26 01:43:13;;;;;;;;;;;20.50;91.00;;;;;;5031792;28;19925;-80
2022/06/26 01:45:43;;;;;;;;;;;20.50;90.90;;;;;;5049405;28;19933;-79
2022/06/26 01:48:11;;;;;;;;;;;20.40;90.90;;;;;;5033559;28;19933;-79
2022/06/26 01:50:38;;;;;;;;;;;20.40;91.00;;;;;;5050437;28;19998;-80
2022/06/26 01:53:06;;;;;;;;;;;20.40;91.00;;;;;;5029892;28;19971;-80
2022/06/26 01:55:35;;;;;;;;;;;20.40;91.00;;;;;;5046249;28;19975;-80
2022/06/26 01:58:06;;;;;;;;;;;20.40;91.00;;;;;;5033791;28;19929;-80
2022/06/26 02:00:35;;;;;;;;;;;20.30;91.00;;;;;;5048991;28;20245;-79
2022/06/26 02:03:01;;;;;;;;;;;20.30;91.00;;;;;;5031264;28;19959;-80
2022/06/26 02:05:29;;;;;;;;;;;20.30;91.00;;;;;;5030656;28;19972;-80
2022/06/26 02:07:56;;;;;;;;;;;20.30;91.00;;;;;;5029910;28;19929;-79
2022/06/26 02:15:56;;;;;;;;;;;20.20;91.00;;;;;;5053737;28;19928;-79
2022/06/26 02:18:24;;;;;;;;;;;20.20;91.10;;;;;;5034968;28;19928;-79
2022/06/26 02:20:51;;;;;;;;;;;20.20;91.10;;;;;;5052669;28;19924;-79
2022/06/26 02:23:18;;;;;;;;;;;20.10;91.20;;;;;;5032525;28;19925;-79
2022/06/26 02:25:45;;;;;;;;;;;20.10;91.30;;;;;;5050789;28;20024;-79
2022/06/26 02:28:13;;;;;;;;;;;20.10;91.30;;;;;;5054907;28;19924;-80
2022/06/26 02:30:40;;;;;;;;;;;20.00;91.20;;;;;;5052475;28;19986;-79
2022/06/26 02:33:07;;;;;;;;;;;20.00;91.20;;;;;;5051190;28;20377;-80
2022/06/26 02:35:34;;;;;;;;;;;20.00;91.20;;;;;;5049897;28;20367;-80
2022/06/26 02:38:01;;;;;;;;;;;20.00;91.20;;;;;;5045346;28;19929;-80
2022/06/26 02:40:29;;;;;;;;;;;19.90;91.10;;;;;;5064376;28;19978;-80
2022/06/26 02:42:56;;;;;;;;;;;19.90;91.10;;;;;;5031581;28;19925;-80
2022/06/26 02:45:25;;;;;;;;;;;19.90;91.20;;;;;;5038396;28;19939;-80
2022/06/26 02:47:52;;;;;;;;;;;19.90;91.10;;;;;;5036893;28;19978;-80
2022/06/26 02:50:19;;;;;;;;;;;19.90;91.10;;;;;;5051806;28;19936;-80
2022/06/26 02:52:46;;;;;;;;;;;19.80;91.10;;;;;;5033868;28;20047;-79
2022/06/26 02:55:13;;;;;;;;;;;19.80;91.00;;;;;;5037349;28;19929;-79
2022/06/26 02:57:42;;;;;;;;;;;19.80;91.00;;;;;;5051466;28;20383;-80
2022/06/26 03:00:12;;;;;;;;;;;19.80;91.10;;;;;;5047276;28;19939;-80
2022/06/26 03:02:44;;;;;;;;;;;19.80;91.10;;;;;;5048812;28;20370;-79
2022/06/26 03:05:11;;;;;;;;;;;19.70;91.10;;;;;;5055641;28;19931;-80
2022/06/26 03:07:38;;;;;;;;;;;19.70;91.10;;;;;;5042971;28;19929;-80
2022/06/26 03:10:06;;;;;;;;;;;19.70;91.10;;;;;;5036720;28;19928;-80
2022/06/26 03:12:32;;;;;;;;;;;19.70;91.10;;;;;;5045580;28;19940;-80
2022/06/26 03:15:02;;;;;;;;;;;19.70;91.50;;;;;;5037093;28;20023;-80
2022/06/26 03:17:30;;;;;;;;;;;19.60;91.20;;;;;;5031869;28;20379;-80
2022/06/26 03:20:06;;;;;;;;;;;19.60;91.20;;;;;;5049570;28;19974;-80
2022/06/26 03:22:33;;;;;;;;;;;19.60;91.20;;;;;;5044632;28;19925;-80
2022/06/26 03:25:00;;;;;;;;;;;19.60;91.20;;;;;;5045516;28;20413;-80
2022/06/26 03:27:29;;;;;;;;;;;19.60;91.20;;;;;;5036047;28;19933;-80
2022/06/26 03:29:55;;;;;;;;;;;19.60;91.20;;;;;;5036203;28;19925;-80
2022/06/26 03:32:22;;;;;;;;;;;19.50;91.20;;;;;;5051082;28;19929;-79
2022/06/26 03:35:06;;;;;;;;;;;19.50;91.20;;;;;;5034554;28;19925;-80
2022/06/26 03:37:34;;;;;;;;;;;19.50;91.30;;;;;;5047202;28;20407;-80
2022/06/26 03:40:01;;;;;;;;;;;19.50;91.30;;;;;;5035618;28;19925;-80
2022/06/26 03:42:29;;;;;;;;;;;19.50;91.30;;;;;;5035427;28;20334;-79
2022/06/26 03:44:56;;;;;;;;;;;19.40;91.30;;;;;;5051365;28;19979;-80
2022/06/26 03:47:23;;;;;;;;;;;19.40;91.30;;;;;;5038153;28;20114;-79
2022/06/26 03:49:53;;;;;;;;;;;19.40;91.30;;;;;;5034585;28;19931;-79
2022/06/26 03:52:23;;;;;;;;;;;19.40;91.50;;;;;;5033640;28;20007;-79
2022/06/26 03:54:51;;;;;;;;;;;19.40;91.60;;;;;;5034808;28;19932;-79
2022/06/26 03:57:21;;;;;;;;;;;19.40;91.80;;;;;;5037636;28;19936;-80
2022/06/26 03:59:50;;;;;;;;;;;19.40;91.80;;;;;;5029742;28;19931;-79
2022/06/26 04:02:38;;;;;;;;;;;19.40;91.80;;;;;;5041700;28;20200;-79
2022/06/26 04:05:05;;;;;;;;;;;19.30;91.70;;;;;;5036600;28;19932;-80
2022/06/26 04:07:34;;;;;;;;;;;19.30;91.70;;;;;;5031345;28;19925;-79
2022/06/26 04:10:14;;;;;;;;;;;19.30;91.70;;;;;;5044831;28;19931;-79
2022/06/26 04:12:41;;;;;;;;;;;19.30;91.80;;;;;;5047595;28;19925;-80
2022/06/26 04:15:08;;;;;;;;;;;19.30;91.90;;;;;;5027105;28;19925;-79
2022/06/26 04:17:36;;;;;;;;;;;19.30;91.90;;;;;;5039982;28;19933;-79
2022/06/26 04:20:09;;;;;;;;;;;19.30;91.90;;;;;;5032240;28;19929;-80
2022/06/26 04:22:38;;;;;;;;;;;19.20;91.90;;;;;;5041979;28;19935;-80
2022/06/26 04:25:05;;;;;;;;;;;19.20;91.90;;;;;;5047423;28;20300;-80
2022/06/26 04:27:32;;;;;;;;;;;19.20;91.90;;;;;;5047686;28;19929;-79
2022/06/26 04:29:59;;;;;;;;;;;19.20;91.80;;;;;;5029691;28;19933;-79
2022/06/26 04:32:26;;;;;;;;;;;19.20;91.90;;;;;;5034699;28;19964;-79
2022/06/26 04:34:53;;;;;;;;;;;19.60;92.10;;;;;;5033807;28;19925;-80
2022/06/26 04:37:20;;;;;;;;;;;19.20;91.90;;;;;;5030776;28;19939;-80
2022/06/26 04:39:48;;;;;;;;;;;19.20;91.90;;;;;;5043753;28;19935;-79
2022/06/26 04:42:16;;;;;;;;;;;19.10;91.80;;;;;;5037407;28;20470;-79
2022/06/26 04:44:43;;;;;;;;;;;19.10;91.80;;;;;;5034654;28;20003;-79
2022/06/26 04:47:11;;;;;;;;;;;19.10;91.80;;;;;;5027569;28;19948;-80
2022/06/26 04:49:53;;;;;;;;;;;19.10;91.70;;;;;;5047725;28;19925;-80
2022/06/26 04:52:20;;;;;;;;;;;19.10;91.80;;;;;;5033420;28;20355;-79
2022/06/26 04:54:51;;;;;;;;;;;19.10;91.70;;;;;;5046947;28;20271;-79
2022/06/26 04:57:18;;;;;;;;;;;19.00;91.70;;;;;;5053146;28;20306;-79
2022/06/26 04:59:49;;;;;;;;;;;19.00;91.70;;;;;;5040129;28;20401;-79
2022/06/26 05:51:37;;;;;;;;;;;18.90;91.90;;;;;;5124579;22;20879;-80
2022/06/26 05:54:18;;;;;;;;;;;18.90;92.00;;;;;;5079246;28;19924;-81
2022/06/26 05:57:26;;;;;;;;;;;18.90;92.00;;;;;;5054817;28;19932;-81
2022/06/26 06:02:59;;;;;;;;;;;18.90;92.10;;;;;;5061171;28;19990;-81
2022/06/26 06:05:26;;;;;;;;;;;18.90;92.10;;;;;;5054559;28;19964;-81
2022/06/26 06:07:55;;;;;;;;;;;18.90;92.10;;;;;;5053580;28;20319;-81
2022/06/26 06:10:23;;;;;;;;;;;18.90;92.10;;;;;;5044426;28;19972;-81
2022/06/26 06:18:14;;;;;;;;;;;18.90;92.30;;;;;;6050006;22;19952;-80
2022/06/26 06:21:04;;;;;;;;;;;18.90;92.30;;;;;;5503492;22;19921;-81
2022/06/26 06:23:59;;;;;;;;;;;18.90;92.40;;;;;;5077395;28;19940;-80
2022/06/26 06:26:26;;;;;;;;;;;18.90;92.40;;;;;;5480267;22;19952;-80
2022/06/26 06:28:58;;;;;;;;;;;18.90;92.40;;;;;;5454262;22;20009;-79
2022/06/26 06:47:47;;;;;;;;;;;18.90;92.30;;;;;;5571751;22;19920;-80
2022/06/26 06:50:36;;;;;;;;;;;18.90;92.40;;;;;;5648643;22;20852;-80
2022/06/26 07:34:16;;;;;;;;;;;19.30;94.20;;;;;;5710726;22;19928;-80
2022/06/26 07:37:11;;;;;;;;;;;19.40;94.30;;;;;;5204693;22;19908;-81
2022/06/26 07:42:20;;;;;;;;;;;19.40;94.50;;;;;;5194515;22;19955;-81
2022/06/26 07:58:02;;;;;;;;;;;19.60;94.50;;;;;;5055899;28;19916;-79
2022/06/26 08:03:13;;;;;;;;;;;19.60;94.50;;;;;;5531049;22;19910;-81
2022/06/26 08:08:23;;;;;;;;;;;19.70;94.60;;;;;;6061617;22;19946;-82
2022/06/26 08:10:53;;;;;;;;;;;19.70;94.60;;;;;;5038815;28;19916;-81
2022/06/26 08:13:23;;;;;;;;;;;19.70;94.70;;;;;;5072841;22;19925;-80
2022/06/26 08:15:52;;;;;;;;;;;19.80;94.80;;;;;;5038018;28;19925;-81
2022/06/26 08:18:22;;;;;;;;;;;19.80;94.80;;;;;;5151116;22;19925;-82
2022/06/26 08:20:49;;;;;;;;;;;19.80;94.90;;;;;;5014618;28;19964;-79
2022/06/26 08:23:17;;;;;;;;;;;19.90;94.90;;;;;;5022065;28;19930;-81
2022/06/26 08:25:44;;;;;;;;;;;19.90;95.00;;;;;;5035788;28;19925;-82
2022/06/26 08:28:11;;;;;;;;;;;19.90;95.00;;;;;;5031990;28;19921;-81
2022/06/26 08:30:40;;;;;;;;;;;19.90;95.00;;;;;;5048140;28;19941;-81
2022/06/26 08:33:07;;;;;;;;;;;19.90;95.10;;;;;;5035647;28;19920;-81
2022/06/26 08:35:34;;;;;;;;;;;20.00;95.00;;;;;;5038061;28;19913;-81
2022/06/26 08:38:04;;;;;;;;;;;20.00;95.00;;;;;;5035305;28;19913;-82
2022/06/26 08:43:06;;;;;;;;;;;20.00;95.10;;;;;;5447059;23;19924;-82
2022/06/26 08:45:33;;;;;;;;;;;20.10;95.10;;;;;;5056211;28;19947;-82
2022/06/26 08:48:04;;;;;;;;;;;20.10;95.00;;;;;;5068274;28;19929;-85
2022/06/26 08:50:32;;;;;;;;;;;20.10;95.00;;;;;;5055681;28;20111;-83
2022/06/26 08:53:11;;;;;;;;;;;20.10;94.90;;;;;;5067688;28;19920;-85
2022/06/26 08:55:39;;;;;;;;;;;20.10;94.90;;;;;;5036870;28;19925;-82
2022/06/26 08:58:07;;;;;;;;;;;20.10;94.90;;;;;;5062462;28;20467;-82
2022/06/26 09:00:37;;;;;;;;;;;20.10;94.90;;;;;;5063195;28;19925;-83
2022/06/26 09:03:06;;;;;;;;;;;20.20;94.90;;;;;;5060244;28;20021;-80
2022/06/26 09:05:33;;;;;;;;;;;20.20;94.80;;;;;;5060477;28;19932;-83
2022/06/26 09:08:01;;;;;;;;;;;20.20;94.80;;;;;;5051873;28;19932;-83
2022/06/26 09:10:34;;;;;;;;;;;20.20;94.80;;;;;;5050192;28;19933;-85
2022/06/26 09:13:03;;;;;;;;;;;20.20;94.80;;;;;;5047762;28;20437;-84
2022/06/26 09:15:30;;;;;;;;;;;20.30;94.80;;;;;;5050471;28;19936;-83
2022/06/26 09:23:54;;;;;;;;;;;20.30;94.70;;;;;;5149849;22;19925;-82
2022/06/26 09:26:21;;;;;;;;;;;20.30;94.60;;;;;;5057785;28;19928;-83
2022/06/26 09:28:48;;;;;;;;;;;20.30;94.60;;;;;;5063131;28;19956;-83
2022/06/26 09:31:19;;;;;;;;;;;20.40;94.50;;;;;;5052801;28;20384;-83
2022/06/26 09:33:52;;;;;;;;;;;20.40;94.60;;;;;;5056985;28;20411;-85
2022/06/26 09:36:20;;;;;;;;;;;20.40;94.50;;;;;;5061004;28;19925;-84
2022/06/26 09:38:52;;;;;;;;;;;20.40;94.50;;;;;;5043213;28;20354;-83
2022/06/26 09:41:30;;;;;;;;;;;20.40;94.50;;;;;;5060029;28;20341;-83
2022/06/26 09:43:58;;;;;;;;;;;20.40;94.50;;;;;;5057541;28;19948;-85
2022/06/26 09:46:29;;;;;;;;;;;20.40;94.40;;;;;;5056799;28;19929;-84
2022/06/26 09:48:57;;;;;;;;;;;20.50;94.40;;;;;;5042227;28;20001;-83
2022/06/26 09:51:24;;;;;;;;;;;20.50;94.30;;;;;;5055632;28;19925;-84
2022/06/26 09:53:51;;;;;;;;;;;20.50;94.30;;;;;;5049435;28;19959;-84
2022/06/26 09:56:19;;;;;;;;;;;20.50;94.30;;;;;;5044701;28;19975;-83
2022/06/26 09:58:47;;;;;;;;;;;20.50;94.30;;;;;;5056384;28;19929;-84
2022/06/26 10:06:57;;;;;;;;;;;20.60;94.10;;;;;;5077806;28;19952;-83
2022/06/26 10:09:25;;;;;;;;;;;20.60;94.10;;;;;;5057709;28;20023;-83
2022/06/26 10:11:52;;;;;;;;;;;20.60;94.10;;;;;;5043352;28;19924;-82
2022/06/26 10:14:22;;;;;;;;;;;20.60;94.10;;;;;;5059619;28;19936;-84
2022/06/26 10:17:04;;;;;;;;;;;20.60;94.00;;;;;;5034907;28;19925;-81
2022/06/26 10:19:35;;;;;;;;;;;20.60;93.90;;;;;;5056082;28;19996;-83
2022/06/26 10:22:02;;;;;;;;;;;20.60;93.80;;;;;;5036489;28;19945;-83
2022/06/26 10:24:32;;;;;;;;;;;20.60;93.80;;;;;;5052998;28;19932;-82
2022/06/26 10:27:13;;;;;;;;;;;20.70;93.70;;;;;;5040551;28;19947;-83
2022/06/26 10:29:41;;;;;;;;;;;20.70;93.60;;;;;;5047916;28;19929;-83
2022/06/26 10:32:11;;;;;;;;;;;20.70;93.50;;;;;;5035919;28;19933;-82
2022/06/26 10:34:38;;;;;;;;;;;20.70;93.50;;;;;;5052480;28;19925;-81
2022/06/26 10:37:05;;;;;;;;;;;20.70;93.50;;;;;;5053455;28;20303;-81
2022/06/26 10:39:49;;;;;;;;;;;20.70;93.40;;;;;;5054533;28;20011;-84
2022/06/26 10:45:09;;;;;;;;;;;20.80;93.30;;;;;;5054266;28;20023;-83
2022/06/26 10:47:40;;;;;;;;;;;20.80;93.30;;;;;;5041039;28;19936;-84
2022/06/26 10:50:22;;;;;;;;;;;20.80;93.30;;;;;;5059219;28;19925;-84
2022/06/26 10:52:49;;;;;;;;;;;20.80;93.30;;;;;;5034313;28;19925;-85
2022/06/26 10:55:16;;;;;;;;;;;20.80;93.30;;;;;;5053012;28;20020;-85
2022/06/26 10:57:43;;;;;;;;;;;20.80;93.30;;;;;;5051315;28;19929;-85
2022/06/26 11:00:13;;;;;;;;;;;20.80;93.30;;;;;;5054318;28;19939;-84
2022/06/26 11:02:44;;;;;;;;;;;20.80;93.30;;;;;;5035029;28;19924;-85
2022/06/26 11:05:13;;;;;;;;;;;20.90;93.40;;;;;;5037385;28;19925;-84
2022/06/26 11:07:44;;;;;;;;;;;20.90;93.40;;;;;;5055141;28;19925;-82
2022/06/26 11:10:12;;;;;;;;;;;20.80;93.40;;;;;;5050978;28;19948;-80
2022/06/26 11:12:42;;;;;;;;;;;20.90;93.40;;;;;;5053116;28;19925;-80
2022/06/26 11:15:21;;;;;;;;;;;20.90;93.40;;;;;;5051422;28;19928;-86
2022/06/26 11:18:03;;;;;;;;;;;20.90;93.40;;;;;;5052445;28;20575;-86
2022/06/26 11:20:49;;;;;;;;;;;21.00;93.40;;;;;;5051526;28;19943;-83
2022/06/26 11:23:18;;;;;;;;;;;21.00;93.40;;;;;;5048168;28;20329;-86
2022/06/26 11:25:46;;;;;;;;;;;21.00;93.40;;;;;;5034350;28;19933;-82
2022/06/26 11:28:13;;;;;;;;;;;21.10;93.40;;;;;;5051425;28;19925;-85
2022/06/26 11:30:42;;;;;;;;;;;21.10;93.40;;;;;;5036063;28;19932;-82
2022/06/26 11:33:09;;;;;;;;;;;21.10;93.40;;;;;;5050996;28;19933;-84
2022/06/26 11:35:37;;;;;;;;;;;21.10;93.40;;;;;;5056339;28;19944;-82
2022/06/26 11:38:11;;;;;;;;;;;21.20;93.40;;;;;;5054166;28;21062;-82
2022/06/26 11:40:38;;;;;;;;;;;21.20;93.30;;;;;;5053156;28;19948;-82
2022/06/26 11:43:05;;;;;;;;;;;21.20;93.40;;;;;;5040849;28;19936;-80
2022/06/26 11:45:32;;;;;;;;;;;21.20;93.40;;;;;;5038525;28;19925;-80
2022/06/26 11:48:01;;;;;;;;;;;21.30;93.40;;;;;;5039767;28;19924;-81
2022/06/26 11:50:33;;;;;;;;;;;21.30;93.40;;;;;;5052544;28;19925;-81
2022/06/26 11:53:00;;;;;;;;;;;21.30;93.20;;;;;;5053022;28;19928;-77
2022/06/26 11:55:27;;;;;;;;;;;21.40;92.90;;;;;;5048554;28;19928;-78
2022/06/26 11:57:54;;;;;;;;;;;21.40;92.80;;;;;;5053211;28;19964;-78
2022/06/26 12:00:22;;;;;;;;;;;21.40;92.90;;;;;;5051360;28;19939;-78
2022/06/26 12:02:49;;;;;;;;;;;21.50;92.90;;;;;;5028596;28;19967;-84
2022/06/26 12:05:21;;;;;;;;;;;21.50;92.90;;;;;;5051476;28;20030;-83
2022/06/26 12:07:49;;;;;;;;;;;21.50;92.90;;;;;;5049957;28;19933;-86
2022/06/26 12:10:25;;;;;;;;;;;21.50;93.00;;;;;;5051790;28;19964;-85
2022/06/26 12:12:52;;;;;;;;;;;21.60;93.20;;;;;;5050267;28;19925;-85
2022/06/26 12:15:20;;;;;;;;;;;21.60;93.30;;;;;;5050733;28;19988;-85
2022/06/26 12:17:52;;;;;;;;;;;21.60;93.00;;;;;;5052113;28;20039;-86
2022/06/26 12:20:23;;;;;;;;;;;21.70;92.90;;;;;;5035187;28;19928;-85
2022/06/26 12:22:51;;;;;;;;;;;21.70;92.90;;;;;;5026802;28;19926;-85
2022/06/26 12:25:28;;;;;;;;;;;21.80;92.90;;;;;;5024921;28;19962;-88
2022/06/26 12:27:56;;;;;;;;;;;21.80;92.80;;;;;;5051649;28;20299;-83
2022/06/26 12:30:26;;;;;;;;;;;21.80;93.00;;;;;;5047392;28;19939;-85
2022/06/26 12:32:53;;;;;;;;;;;21.90;92.90;;;;;;5048024;28;19986;-80
2022/06/26 12:35:19;;;;;;;;;;;21.90;92.90;;;;;;5049559;28;19979;-85
2022/06/26 12:37:48;;;;;;;;;;;21.90;93.10;;;;;;5055108;28;19951;-79
2022/06/26 12:40:15;;;;;;;;;;;22.00;93.10;;;;;;5035071;28;19936;-85
2022/06/26 12:42:42;;;;;;;;;;;22.00;93.10;;;;;;5055607;28;19955;-86
2022/06/26 12:45:12;;;;;;;;;;;22.10;93.20;;;;;;5054148;28;20032;-86
2022/06/26 12:47:42;;;;;;;;;;;22.10;93.40;;;;;;5050773;28;19971;-88
2022/06/26 12:50:13;;;;;;;;;;;22.20;93.40;;;;;;5023049;28;20353;-85
2022/06/26 12:52:44;;;;;;;;;;;22.20;93.40;;;;;;5053835;28;19928;-79
2022/06/26 12:55:14;;;;;;;;;;;22.30;93.50;;;;;;5046706;28;19931;-87
2022/06/26 12:57:41;;;;;;;;;;;22.30;93.60;;;;;;5039176;28;19933;-85
2022/06/26 13:00:11;;;;;;;;;;;22.40;93.70;;;;;;5047620;28;19933;-83
2022/06/26 13:02:38;;;;;;;;;;;22.40;93.80;;;;;;5046993;28;19995;-83
2022/06/26 13:05:05;;;;;;;;;;;22.50;93.90;;;;;;5044846;28;19929;-83
2022/06/26 13:07:32;;;;;;;;;;;22.50;94.00;;;;;;5043823;28;19983;-84
2022/06/26 13:09:59;;;;;;;;;;;22.60;94.00;;;;;;5049225;28;19925;-82
2022/06/26 13:12:27;;;;;;;;;;;22.60;93.90;;;;;;5043809;28;19951;-81
2022/06/26 13:14:54;;;;;;;;;;;22.70;94.00;;;;;;5030922;28;19925;-81
2022/06/26 13:17:21;;;;;;;;;;;22.80;94.00;;;;;;5049199;28;20049;-81
2022/06/26 13:19:48;;;;;;;;;;;22.80;94.00;;;;;;5047963;28;19964;-82
2022/06/26 13:22:15;;;;;;;;;;;22.90;94.00;;;;;;5048336;28;19929;-83
2022/06/26 13:24:46;;;;;;;;;;;22.90;94.10;;;;;;5036926;28;20391;-82
2022/06/26 13:27:16;;;;;;;;;;;22.90;94.10;;;;;;5031141;28;19928;-80
2022/06/26 13:29:45;;;;;;;;;;;23.00;94.20;;;;;;5044723;28;19932;-82
2022/06/26 13:32:11;;;;;;;;;;;23.00;94.10;;;;;;5046118;28;20346;-83
2022/06/26 13:34:38;;;;;;;;;;;23.10;94.20;;;;;;5047566;28;19925;-82
2022/06/26 13:37:05;;;;;;;;;;;23.20;94.30;;;;;;5052147;28;20383;-81
2022/06/26 13:39:32;;;;;;;;;;;23.20;94.30;;;;;;5045201;28;19924;-82
2022/06/26 13:41:59;;;;;;;;;;;23.20;94.30;;;;;;5054657;28;19933;-86
2022/06/26 13:44:26;;;;;;;;;;;23.30;94.20;;;;;;5054304;28;19932;-81
2022/06/26 13:46:55;;;;;;;;;;;23.30;94.20;;;;;;5050045;28;19993;-81
2022/06/26 13:49:22;;;;;;;;;;;23.40;94.20;;;;;;5046657;28;19944;-81
2022/06/26 13:51:49;;;;;;;;;;;23.40;94.10;;;;;;5044286;28;19925;-82
2022/06/26 13:54:16;;;;;;;;;;;23.50;94.10;;;;;;5043201;28;19978;-82
2022/06/26 13:56:43;;;;;;;;;;;23.50;94.00;;;;;;5026377;28;19940;-82
2022/06/26 13:59:10;;;;;;;;;;;23.50;94.00;;;;;;5054495;28;19996;-80
2022/06/26 14:01:37;;;;;;;;;;;23.60;94.00;;;;;;5052598;28;19948;-82
2022/06/26 14:04:05;;;;;;;;;;;23.60;93.90;;;;;;5037399;28;19992;-81
2022/06/26 14:06:32;;;;;;;;;;;23.70;94.00;;;;;;5035010;28;19931;-81
2022/06/26 14:08:59;;;;;;;;;;;23.70;93.80;;;;;;5051342;28;20327;-84
2022/06/26 14:11:26;;;;;;;;;;;23.80;93.40;;;;;;5052411;28;20031;-84
2022/06/26 14:13:53;;;;;;;;;;;23.80;93.40;;;;;;5053241;28;19925;-84
2022/06/26 14:16:20;;;;;;;;;;;23.90;93.60;;;;;;5054885;28;19928;-84
2022/06/26 14:18:47;;;;;;;;;;;23.90;93.30;;;;;;5053556;28;19951;-84
2022/06/26 14:21:15;;;;;;;;;;;24.00;93.60;;;;;;5053391;28;19938;-84
2022/06/26 14:26:38;;;;;;;;;;;24.00;93.60;;;;;;4991140;28;20394;-84
2022/06/26 14:29:05;;;;;;;;;;;24.10;93.60;;;;;;5020662;28;19982;-83
2022/06/26 14:31:33;;;;;;;;;;;24.10;93.50;;;;;;5031727;28;20342;-84
2022/06/26 14:34:03;;;;;;;;;;;24.20;93.60;;;;;;5056193;28;19932;-84
2022/06/26 14:36:32;;;;;;;;;;;24.20;93.60;;;;;;5053283;28;19925;-84
2022/06/26 14:38:59;;;;;;;;;;;24.30;93.60;;;;;;5054148;28;20403;-84
2022/06/26 14:41:25;;;;;;;;;;;24.30;93.60;;;;;;5054615;28;19951;-84
2022/06/26 14:43:52;;;;;;;;;;;24.40;93.60;;;;;;5052194;28;20383;-84
2022/06/26 14:46:19;;;;;;;;;;;24.40;93.40;;;;;;5032564;28;19932;-84
2022/06/26 14:48:46;;;;;;;;;;;24.50;93.50;;;;;;5056640;28;19958;-84
2022/06/26 14:51:13;;;;;;;;;;;24.50;93.40;;;;;;5051758;28;19947;-86
2022/06/26 14:53:41;;;;;;;;;;;24.60;93.50;;;;;;5048284;28;19925;-85
2022/06/26 14:56:08;;;;;;;;;;;24.60;93.50;;;;;;5047743;28;19925;-85
2022/06/26 14:58:35;;;;;;;;;;;24.70;93.50;;;;;;5041341;28;19989;-86
2022/06/26 15:01:02;;;;;;;;;;;24.70;93.40;;;;;;5053715;28;19925;-85
2022/06/26 15:03:29;;;;;;;;;;;24.70;93.40;;;;;;5051438;28;19913;-85
2022/06/26 15:05:55;;;;;;;;;;;24.80;93.30;;;;;;5053187;28;19951;-86
2022/06/26 15:08:23;;;;;;;;;;;24.90;93.30;;;;;;5053093;28;19935;-86
2022/06/26 15:10:54;;;;;;;;;;;24.90;93.30;;;;;;5050837;28;20002;-87
2022/06/26 15:13:24;;;;;;;;;;;24.90;93.30;;;;;;5020163;28;20023;-86
2022/06/26 15:15:51;;;;;;;;;;;25.00;93.20;;;;;;5048441;28;20123;-84
2022/06/26 15:18:20;;;;;;;;;;;25.00;93.20;;;;;;5050214;28;20374;-84
2022/06/26 15:20:52;;;;;;;;;;;25.10;93.20;;;;;;5048405;28;19933;-83
2022/06/26 15:23:19;;;;;;;;;;;25.10;93.00;;;;;;5023381;28;20400;-83
2022/06/26 15:25:46;;;;;;;;;;;25.20;93.00;;;;;;5046096;28;19933;-83
2022/06/26 15:28:16;;;;;;;;;;;25.20;93.10;;;;;;5049144;28;20485;-83
2022/06/26 15:30:43;;;;;;;;;;;25.20;93.00;;;;;;5046004;28;19925;-84
2022/06/26 15:33:09;;;;;;;;;;;25.30;93.10;;;;;;5054035;28;19929;-83
2022/06/26 15:35:36;;;;;;;;;;;25.30;92.90;;;;;;5058437;28;19929;-83
2022/06/26 15:38:03;;;;;;;;;;;25.30;93.00;;;;;;5051296;28;19940;-82
2022/06/26 15:40:30;;;;;;;;;;;25.40;92.90;;;;;;5052410;28;19932;-80
2022/06/26 15:42:57;;;;;;;;;;;25.40;92.90;;;;;;5035585;28;19925;-81
2022/06/26 15:45:26;;;;;;;;;;;25.40;92.80;;;;;;5053284;28;19931;-82
2022/06/26 15:47:55;;;;;;;;;;;25.50;92.80;;;;;;5049280;28;19933;-83
2022/06/26 15:50:22;;;;;;;;;;;25.50;92.70;;;;;;5053976;28;19990;-83
2022/06/26 15:52:49;;;;;;;;;;;25.50;92.70;;;;;;5050698;28;19929;-83
2022/06/26 15:55:16;;;;;;;;;;;25.50;92.60;;;;;;5053390;28;19932;-85
2022/06/26 15:57:44;;;;;;;;;;;25.60;92.60;;;;;;5045530;28;19960;-85
2022/06/26 16:00:12;;;;;;;;;;;25.60;92.50;;;;;;5047223;28;19971;-87
2022/06/26 16:02:40;;;;;;;;;;;25.60;92.40;;;;;;5046475;28;19935;-86
2022/06/26 16:05:09;;;;;;;;;;;25.70;92.40;;;;;;5046345;28;19924;-82
2022/06/26 16:07:36;;;;;;;;;;;25.70;92.30;;;;;;5051138;28;19935;-81
2022/06/26 16:10:04;;;;;;;;;;;25.70;92.30;;;;;;5049705;28;20383;-84
2022/06/26 16:12:30;;;;;;;;;;;25.80;92.30;;;;;;5047660;28;19931;-81
2022/06/26 16:15:00;;;;;;;;;;;25.80;92.30;;;;;;5048939;28;20636;-83
2022/06/26 16:17:27;;;;;;;;;;;25.80;92.20;;;;;;5047563;28;19925;-82
2022/06/26 16:19:55;;;;;;;;;;;25.80;92.00;;;;;;5051992;28;20399;-84
2022/06/26 16:27:51;;;;;;;;;;;26.00;92.10;;;;;;5053469;28;19925;-84
2022/06/26 16:30:18;;;;;;;;;;;26.00;92.00;;;;;;5028191;28;19925;-85
2022/06/26 16:32:47;;;;;;;;;;;26.00;92.00;;;;;;5025876;28;19929;-86
2022/06/26 16:35:16;;;;;;;;;;;26.00;91.80;;;;;;5051014;28;20138;-86
2022/06/26 16:37:46;;;;;;;;;;;26.00;91.70;;;;;;5033108;28;19933;-86
2022/06/26 16:40:13;;;;;;;;;;;26.10;91.80;;;;;;5054656;28;20662;-88
2022/06/26 16:42:40;;;;;;;;;;;26.10;91.80;;;;;;5051453;28;19929;-81
2022/06/26 16:45:10;;;;;;;;;;;26.10;91.80;;;;;;5055607;28;19940;-82
2022/06/26 16:47:37;;;;;;;;;;;26.20;91.60;;;;;;5051735;28;19952;-83
2022/06/26 16:50:04;;;;;;;;;;;26.20;91.40;;;;;;5055132;28;19935;-84
2022/06/26 16:52:33;;;;;;;;;;;26.20;91.40;;;;;;5048476;28;19932;-80
2022/06/26 16:55:00;;;;;;;;;;;26.20;91.40;;;;;;5055518;28;19925;-82
2022/06/26 16:57:28;;;;;;;;;;;26.30;91.40;;;;;;5051067;28;19925;-82
2022/06/26 16:59:55;;;;;;;;;;;26.30;91.40;;;;;;5029770;28;19925;-85
2022/06/26 17:02:22;;;;;;;;;;;26.30;91.30;;;;;;5050424;28;19924;-84
2022/06/26 17:04:51;;;;;;;;;;;26.30;91.20;;;;;;5054622;28;20276;-86
2022/06/26 17:07:19;;;;;;;;;;;26.30;91.10;;;;;;5050441;28;19956;-83
2022/06/26 17:09:48;;;;;;;;;;;26.30;91.20;;;;;;5050594;28;19929;-84
2022/06/26 17:12:15;;;;;;;;;;;26.40;90.80;;;;;;5049137;28;20403;-85
2022/06/26 17:14:42;;;;;;;;;;;26.40;90.90;;;;;;5049820;28;19935;-85